Kezdőlap
METAR-TAF:

METAR-TAF

Repülőterek :

Peking, Kína

Pekingi nemzetközi repülőtér

földrajzi szélesség: 39-56N, földrajzi hosszúság: 116-17E, magasság: 55 m

Jelenlegi meteorológiai megfigyelések

A jelentés 34 perccel ezelõtt készült, 06:00 UTC
Észak-északnyugati szél 12 kt széllökések: 21 kt, nyugat-északnyugati és északi között változik
Hőmérséklet 13°C
Páratartalom 11%
Légköri nyomás 1017 hPa
Látótávolság 10 km, vagy több
felhőtlen 1500 m magasságban, és nincs gomolyfelhõ

METAR: ZBAA 230600Z 33006G11MPS 300V010 CAVOK 13/M17 Q1017 NOSIG

Idő: 14:34 (06:34 UTC)

Előrejelzés

A jelentés 3 órával és 4 perccel ezelõtt készült, 03:30 UTC
Az előrejelzés 23-én 06 óra UTC és 24-én 06 óra UTC között érvényes
Északi szél 8 kt
Látótávolság: 7000 m

TAF: ZBAA 230330Z 2306/2406 35004MPS 7000 NSC TX10/2307Z TNM05/22Z

Meteorológiai megfigyelések és előrejelzések több, mint 4000 repülőtéren (METAR és TAF jelentéseket).

A térképen piros és sárga pontok jelzik az elérhető meteorológiai állomásokat.

Mozgassa az egeret a pont fölött, hogy megjelenjen az állomás neve.

Azután kattintson az időjárási megfigyelések és előrejelzések megtekintéséhez.

A térkép megváltoztatása: kattintson a fekete keresztel jelölt zöld gombra ráközelítéshez, a vonallal jelölt zöld gombra távolításhoz, vagy a zöld nyilakra a szomszédos térképek eléréséhez.


METAR-TAF: